createdAt,value
2016-04-18T00:00:49.148Z,21
2016-04-18T00:01:50.167Z,21
2016-04-18T00:02:48.451Z,21
2016-04-18T00:03:46.859Z,21.1
2016-04-18T00:04:45.035Z,21
2016-04-18T00:05:43.316Z,21
2016-04-18T00:06:41.615Z,21
2016-04-18T00:07:39.931Z,21
2016-04-18T00:08:38.184Z,21
2016-04-18T00:09:36.498Z,21.1
2016-04-18T00:10:34.829Z,21
2016-04-18T00:11:35.847Z,21
2016-04-18T00:12:34.131Z,21
2016-04-18T00:13:32.414Z,21
2016-04-18T00:14:30.730Z,21.1
2016-04-18T00:15:29.019Z,21
2016-04-18T00:16:27.096Z,21
2016-04-18T00:17:25.439Z,21.1
2016-04-18T00:18:23.766Z,21.1
2016-04-18T00:19:22.093Z,21.1
2016-04-18T00:20:20.500Z,21.1
2016-04-18T00:21:21.518Z,21
2016-04-18T00:22:19.802Z,21.1
2016-04-18T00:23:18.117Z,21
2016-04-18T00:24:16.417Z,21
2016-04-18T00:25:14.727Z,21
2016-04-18T00:26:13.016Z,21
2016-04-18T00:27:11.306Z,21
2016-04-18T00:28:09.720Z,21
2016-04-18T00:29:07.901Z,21
2016-04-18T00:30:06.251Z,21
2016-04-18T00:31:07.287Z,20.9
2016-04-18T00:32:05.573Z,21
2016-04-18T00:33:03.859Z,20.9
2016-04-18T00:34:02.269Z,20.9
2016-04-18T00:35:00.445Z,20.9
2016-04-18T00:35:58.730Z,20.9
2016-04-18T00:36:57.030Z,20.9
2016-04-18T00:37:55.315Z,20.9
2016-04-18T00:38:53.787Z,20.9
2016-04-18T00:39:51.962Z,20.9
2016-04-18T00:40:52.981Z,20.9
2016-04-18T00:41:51.266Z,20.9
2016-04-18T00:42:49.566Z,20.9
2016-04-18T00:43:47.850Z,20.9
2016-04-18T00:44:46.131Z,20.9
2016-04-18T00:45:44.431Z,20.9
2016-04-18T00:46:42.714Z,20.9
2016-04-18T00:47:40.999Z,20.9
2016-04-18T00:48:39.547Z,20.9
2016-04-18T00:49:38.145Z,20.9
2016-04-18T00:50:39.179Z,20.9
2016-04-18T00:51:37.713Z,20.9
2016-04-18T00:52:36.263Z,20.9
2016-04-18T00:53:34.546Z,20.9
2016-04-18T00:54:32.830Z,20.9
2016-04-18T00:55:31.130Z,20.9
2016-04-18T00:56:29.430Z,20.9
2016-04-18T00:57:27.697Z,20.9
2016-04-18T00:58:25.997Z,21
2016-04-18T00:59:24.344Z,20.9
2016-04-18T01:00:25.363Z,21
2016-04-18T01:01:23.662Z,21
2016-04-18T01:02:21.946Z,21
2016-04-18T01:03:20.245Z,21
2016-04-18T01:04:18.529Z,21
2016-04-18T01:05:16.844Z,21
2016-04-18T01:06:15.097Z,21
2016-04-18T01:07:13.412Z,21
2016-04-18T01:08:11.681Z,21
2016-04-18T01:09:10.026Z,21
2016-04-18T01:10:11.045Z,21
2016-04-18T01:11:09.470Z,21
2016-04-18T01:12:07.645Z,21
2016-04-18T01:13:05.928Z,21
2016-04-18T01:14:04.212Z,21
2016-04-18T01:15:02.495Z,21
2016-04-18T01:16:01.045Z,20.9
2016-04-18T01:16:59.595Z,20.9
2016-04-18T01:17:58.128Z,20.9
2016-04-18T01:18:56.851Z,20.9
2016-04-18T01:19:57.775Z,20.9
2016-04-18T01:20:56.293Z,20.9
2016-04-18T01:21:54.844Z,20.9
2016-04-18T01:22:53.502Z,20.9
2016-04-18T01:23:51.957Z,20.9
2016-04-18T01:24:50.477Z,20.9
2016-04-18T01:25:49.011Z,20.9
2016-04-18T01:26:47.558Z,20.9
2016-04-18T01:27:46.090Z,20.9
2016-04-18T01:28:44.828Z,20.8
2016-04-18T01:29:45.705Z,20.8
2016-04-18T01:30:44.490Z,20.8
2016-04-18T01:31:43.289Z,20.8
2016-04-18T01:32:42.088Z,20.8
2016-04-18T01:33:40.998Z,20.8
2016-04-18T01:34:39.688Z,20.8
2016-04-18T01:35:38.504Z,20.8
2016-04-18T01:36:37.412Z,20.8
2016-04-18T01:37:36.071Z,20.8
2016-04-18T01:38:34.932Z,20.8
2016-04-18T01:39:36.060Z,20.8
2016-04-18T01:40:34.750Z,20.8
2016-04-18T01:41:33.535Z,20.8
2016-04-18T01:42:32.334Z,20.8
2016-04-18T01:43:31.134Z,20.8
2016-04-18T01:44:29.934Z,20.8
2016-04-18T01:45:28.734Z,20.9
2016-04-18T01:46:27.517Z,20.9
2016-04-18T01:47:26.317Z,20.9
2016-04-18T01:48:25.178Z,20.9
2016-04-18T01:49:26.337Z,20.9
2016-04-18T01:50:24.871Z,20.9
2016-04-18T01:51:23.311Z,20.9
2016-04-18T01:52:21.845Z,20.9
2016-04-18T01:53:20.395Z,20.9
2016-04-18T01:54:18.929Z,20.9
2016-04-18T01:55:17.478Z,20.9
2016-04-18T01:56:16.028Z,20.9
2016-04-18T01:57:14.563Z,20.9
2016-04-18T01:58:13.158Z,20.9
2016-04-18T01:59:14.177Z,20.9
2016-04-18T02:00:12.726Z,20.9
2016-04-18T02:01:11.276Z,20.9
2016-04-18T02:02:09.919Z,20.9
2016-04-18T02:03:08.359Z,20.9
2016-04-18T02:04:06.910Z,20.9
2016-04-18T02:05:05.443Z,20.9
2016-04-18T02:06:03.976Z,20.9
2016-04-18T02:07:02.526Z,20.9
2016-04-18T02:08:01.139Z,20.9
2016-04-18T02:09:02.157Z,20.9
2016-04-18T02:10:00.675Z,20.9
2016-04-18T02:10:59.459Z,20.9
2016-04-18T02:11:58.259Z,20.8
2016-04-18T02:12:57.059Z,20.8
2016-04-18T02:13:55.967Z,20.8
2016-04-18T02:14:54.642Z,20.8
2016-04-18T02:15:53.442Z,20.8
2016-04-18T02:16:52.241Z,20.8
2016-04-18T02:17:51.087Z,20.8
2016-04-18T02:18:52.231Z,20.8
2016-04-18T02:19:50.906Z,20.7
2016-04-18T02:20:49.687Z,20.7
2016-04-18T02:21:48.486Z,20.7
2016-04-18T02:22:47.301Z,20.7
2016-04-18T02:23:46.100Z,20.7
2016-04-18T02:24:45.010Z,20.7
2016-04-18T02:25:43.683Z,20.7
2016-04-18T02:26:42.484Z,20.7
2016-04-18T02:27:41.346Z,20.7
2016-04-18T02:28:42.349Z,20.7
2016-04-18T02:29:41.149Z,20.7
2016-04-18T02:30:40.197Z,20.7
2016-04-18T02:31:38.997Z,20.7
2016-04-18T02:32:37.922Z,20.7
2016-04-18T02:33:36.596Z,20.7
2016-04-18T02:34:35.521Z,20.8
2016-04-18T02:35:34.196Z,20.8
2016-04-18T02:36:33.120Z,20.8
2016-04-18T02:37:31.873Z,20.8
2016-04-18T02:38:32.875Z,20.8
2016-04-18T02:39:31.660Z,20.9
2016-04-18T02:40:30.475Z,20.9
2016-04-18T02:41:29.384Z,20.9
2016-04-18T02:42:28.168Z,20.9
2016-04-18T02:43:26.857Z,20.9
2016-04-18T02:44:25.688Z,20.9
2016-04-18T02:45:24.441Z,20.9
2016-04-18T02:46:23.240Z,20.9
2016-04-18T02:47:22.212Z,20.9
2016-04-18T02:48:23.120Z,20.9
2016-04-18T02:49:21.920Z,20.9
2016-04-18T02:50:20.705Z,20.9
2016-04-18T02:51:19.504Z,20.9
2016-04-18T02:52:18.303Z,20.9
2016-04-18T02:53:17.213Z,20.9
2016-04-18T02:54:15.934Z,20.9
2016-04-18T02:55:14.703Z,20.9
2016-04-18T02:56:13.502Z,20.8
2016-04-18T02:57:12.364Z,20.8
2016-04-18T02:58:13.382Z,20.8
2016-04-18T02:59:12.183Z,20.8
2016-04-18T03:00:10.965Z,20.8
2016-04-18T03:01:09.766Z,20.8
2016-04-18T03:02:08.596Z,20.8
2016-04-18T03:03:07.474Z,20.7
2016-04-18T03:04:06.148Z,20.7
2016-04-18T03:05:04.948Z,20.7
2016-04-18T03:06:03.732Z,20.7
2016-04-18T03:07:02.704Z,20.7
2016-04-18T03:08:03.613Z,20.7
2016-04-18T03:09:02.663Z,20.7
2016-04-18T03:10:01.712Z,20.7
2016-04-18T03:11:00.762Z,20.7
2016-04-18T03:11:59.810Z,20.7
2016-04-18T03:12:58.860Z,20.7
2016-04-18T03:13:57.910Z,20.7
2016-04-18T03:14:56.960Z,20.7
2016-04-18T03:15:56.400Z,20.7
2016-04-18T03:16:55.371Z,20.7
2016-04-18T03:17:56.390Z,20.7
2016-04-18T03:18:55.439Z,20.7
2016-04-18T03:19:54.504Z,20.7
2016-04-18T03:20:53.538Z,20.7
2016-04-18T03:21:52.587Z,20.7
2016-04-18T03:22:51.653Z,20.7
2016-04-18T03:23:50.684Z,20.7
2016-04-18T03:24:49.750Z,20.8
2016-04-18T03:25:48.799Z,20.8
2016-04-18T03:26:47.927Z,20.8
2016-04-18T03:27:48.929Z,20.8
2016-04-18T03:28:47.728Z,20.8
2016-04-18T03:29:46.543Z,20.8
2016-04-18T03:30:45.312Z,20.9
2016-04-18T03:31:44.111Z,20.9
2016-04-18T03:32:42.911Z,20.9
2016-04-18T03:33:41.711Z,20.9
2016-04-18T03:34:40.760Z,20.9
2016-04-18T03:35:39.810Z,20.9
2016-04-18T03:36:38.656Z,20.9
2016-04-18T03:37:39.674Z,20.9
2016-04-18T03:38:38.474Z,20.9
2016-04-18T03:39:37.274Z,20.9
2016-04-18T03:40:36.074Z,20.9
2016-04-18T03:41:34.857Z,20.9
2016-04-18T03:42:33.673Z,20.8
2016-04-18T03:43:32.457Z,20.9
2016-04-18T03:44:31.506Z,20.8
2016-04-18T03:45:30.571Z,20.8
2016-04-18T03:46:29.667Z,20.8
2016-04-18T03:47:30.687Z,20.8
2016-04-18T03:48:29.751Z,20.8
2016-04-18T03:49:28.770Z,20.7
2016-04-18T03:50:27.819Z,20.7
2016-04-18T03:51:26.869Z,20.7
2016-04-18T03:52:25.934Z,20.7
2016-04-18T03:53:24.967Z,20.7
2016-04-18T03:54:24.017Z,20.7
2016-04-18T03:55:23.066Z,20.6
2016-04-18T03:56:22.163Z,20.6
2016-04-18T03:57:23.306Z,20.7
2016-04-18T03:58:22.247Z,20.6
2016-04-18T03:59:21.547Z,20.6
2016-04-18T04:00:20.846Z,20.6
2016-04-18T04:01:20.146Z,20.6
2016-04-18T04:02:19.570Z,20.6
2016-04-18T04:03:18.761Z,20.6
2016-04-18T04:04:18.060Z,20.6
2016-04-18T04:05:17.375Z,20.6
2016-04-18T04:06:16.721Z,20.6
2016-04-18T04:07:17.755Z,20.6
2016-04-18T04:08:17.165Z,20.6
2016-04-18T04:09:16.479Z,20.7
2016-04-18T04:10:15.670Z,20.7
2016-04-18T04:11:14.969Z,20.7
2016-04-18T04:12:14.144Z,20.7
2016-04-18T04:13:13.318Z,20.7
2016-04-18T04:14:12.368Z,20.7
2016-04-18T04:15:11.684Z,20.7
2016-04-18T04:16:10.904Z,20.7
2016-04-18T04:17:11.798Z,20.7
2016-04-18T04:18:10.863Z,20.8
2016-04-18T04:19:09.928Z,20.8
2016-04-18T04:20:08.978Z,20.8
2016-04-18T04:21:08.011Z,20.8
2016-04-18T04:22:07.062Z,20.8
2016-04-18T04:23:06.158Z,20.8
2016-04-18T04:24:05.161Z,20.8
2016-04-18T04:25:04.226Z,20.8
2016-04-18T04:26:03.072Z,20.8
2016-04-18T04:27:04.216Z,20.8
2016-04-18T04:28:03.139Z,20.8
2016-04-18T04:29:02.206Z,20.8
2016-04-18T04:30:01.239Z,20.8
2016-04-18T04:31:00.414Z,20.8
2016-04-18T04:31:59.338Z,20.8
2016-04-18T04:32:58.388Z,20.8
2016-04-18T04:33:57.547Z,20.7
2016-04-18T04:34:56.487Z,20.8
2016-04-18T04:35:55.583Z,20.7
2016-04-18T04:36:56.742Z,20.7
2016-04-18T04:37:55.916Z,20.7
2016-04-18T04:38:55.232Z,20.7
2016-04-18T04:39:54.626Z,20.7
2016-04-18T04:40:53.941Z,20.6
2016-04-18T04:41:53.240Z,20.7
2016-04-18T04:42:52.430Z,20.7
2016-04-18T04:43:51.727Z,20.7
2016-04-18T04:44:51.042Z,20.7
2016-04-18T04:45:50.764Z,20.7
2016-04-18T04:46:51.672Z,20.7
2016-04-18T04:47:51.236Z,20.7
2016-04-18T04:48:50.786Z,20.6
2016-04-18T04:49:50.352Z,20.7
2016-04-18T04:50:49.902Z,20.7
2016-04-18T04:51:49.576Z,20.7
2016-04-18T04:52:49.000Z,20.6
2016-04-18T04:53:48.581Z,20.7
2016-04-18T04:54:48.131Z,20.7
2016-04-18T04:55:47.743Z,20.7
2016-04-18T04:56:48.777Z,20.7
2016-04-18T04:57:48.342Z,20.7
2016-04-18T04:58:47.907Z,20.7
2016-04-18T04:59:47.426Z,20.7
2016-04-18T05:00:47.007Z,20.8
2016-04-18T05:01:46.556Z,20.8
2016-04-18T05:02:46.121Z,20.8
2016-04-18T05:03:45.670Z,20.8
2016-04-18T05:04:45.220Z,20.9
2016-04-18T05:05:44.848Z,20.8
2016-04-18T05:06:45.851Z,20.9
2016-04-18T05:07:45.151Z,20.9
2016-04-18T05:08:44.481Z,20.9
2016-04-18T05:09:43.765Z,20.9
2016-04-18T05:10:43.064Z,20.9
2016-04-18T05:11:42.379Z,20.9
2016-04-18T05:12:41.695Z,21
2016-04-18T05:13:40.994Z,21
2016-04-18T05:14:40.294Z,21
2016-04-18T05:15:39.765Z,21
2016-04-18T05:16:40.675Z,21
2016-04-18T05:17:39.974Z,21
2016-04-18T05:18:39.273Z,21
2016-04-18T05:19:38.572Z,21.1
2016-04-18T05:20:37.888Z,21.1
2016-04-18T05:21:37.297Z,21.1
2016-04-18T05:22:36.472Z,21.1
2016-04-18T05:23:35.786Z,21.1
2016-04-18T05:24:35.118Z,21
2016-04-18T05:25:34.449Z,21.1
2016-04-18T05:26:35.466Z,21
2016-04-18T05:27:34.782Z,21
2016-04-18T05:28:34.190Z,21
2016-04-18T05:29:33.381Z,21.1
2016-04-18T05:30:32.796Z,21
2016-04-18T05:31:31.986Z,21
2016-04-18T05:32:31.286Z,21
2016-04-18T05:33:30.710Z,21
2016-04-18T05:34:29.900Z,21
2016-04-18T05:35:29.387Z,21
2016-04-18T05:36:30.280Z,20.9
2016-04-18T05:37:29.580Z,21
2016-04-18T05:38:28.880Z,21
2016-04-18T05:39:28.196Z,20.9
2016-04-18T05:40:27.510Z,20.9
2016-04-18T05:41:26.794Z,20.9
2016-04-18T05:42:26.093Z,20.9
2016-04-18T05:43:25.393Z,20.9
2016-04-18T05:44:24.708Z,20.9
2016-04-18T05:45:24.101Z,20.9
2016-04-18T05:46:25.089Z,20.9
2016-04-18T05:47:24.388Z,21
2016-04-18T05:48:23.720Z,21
2016-04-18T05:49:23.253Z,21
2016-04-18T05:50:22.912Z,21.1
2016-04-18T05:51:22.461Z,21.1
2016-04-18T05:52:21.777Z,21.1
2016-04-18T05:53:20.967Z,21.2
2016-04-18T05:54:20.251Z,21.3
2016-04-18T05:55:19.614Z,21.3
2016-04-18T05:56:20.632Z,21.3
2016-04-18T05:57:19.931Z,21.4
2016-04-18T05:58:19.231Z,21.4
2016-04-18T05:59:18.546Z,21.5
2016-04-18T06:00:17.627Z,21.5
2016-04-18T06:01:16.754Z,21.5
2016-04-18T06:02:15.679Z,21.5
2016-04-18T06:03:14.744Z,21.6
2016-04-18T06:04:13.544Z,21.6
2016-04-18T06:05:12.375Z,21.7
2016-04-18T06:06:13.518Z,21.7
2016-04-18T06:07:12.208Z,21.8
2016-04-18T06:08:11.023Z,21.8
2016-04-18T06:09:09.791Z,21.9
2016-04-18T06:10:08.606Z,22
2016-04-18T06:11:07.499Z,22.1
2016-04-18T06:12:06.174Z,22.1
2016-04-18T06:13:04.974Z,22.1
2016-04-18T06:14:03.774Z,22.2
2016-04-18T06:15:02.620Z,22.2
2016-04-18T06:16:03.654Z,22.4
2016-04-18T06:17:02.437Z,22.4
2016-04-18T06:18:01.238Z,22.5
2016-04-18T06:19:00.037Z,22.5
2016-04-18T06:19:58.821Z,22.7
2016-04-18T06:20:57.620Z,22.7
2016-04-18T06:21:56.404Z,22.7
2016-04-18T06:22:55.203Z,22.8
2016-04-18T06:23:53.988Z,22.8
2016-04-18T06:24:52.847Z,22.9
2016-04-18T06:25:53.853Z,23
2016-04-18T06:26:52.665Z,23
2016-04-18T06:27:51.215Z,23.1
2016-04-18T06:28:49.749Z,23.1
2016-04-18T06:29:48.283Z,23.1
2016-04-18T06:30:46.833Z,23.2
2016-04-18T06:31:45.366Z,23.3
2016-04-18T06:32:43.931Z,23.3
2016-04-18T06:33:42.449Z,23.4
2016-04-18T06:34:41.047Z,23.4
2016-04-18T06:35:42.064Z,23.5
2016-04-18T06:36:40.349Z,23.5
2016-04-18T06:37:38.633Z,23.5
2016-04-18T06:38:36.916Z,23.6
2016-04-18T06:39:35.199Z,23.6
2016-04-18T06:40:33.485Z,23.6
2016-04-18T06:41:31.784Z,23.7
2016-04-18T06:42:30.068Z,23.7
2016-04-18T06:43:28.086Z,23.7
2016-04-18T06:44:26.182Z,23.7
2016-04-18T06:45:27.201Z,23.8
2016-04-18T06:46:25.234Z,23.8
2016-04-18T06:47:23.268Z,23.8
2016-04-18T06:48:21.287Z,23.9
2016-04-18T06:49:19.071Z,23.9
2016-04-18T06:50:16.855Z,23.9
2016-04-18T06:51:14.639Z,24
2016-04-18T06:52:12.532Z,24
2016-04-18T06:53:10.191Z,24
2016-04-18T06:54:08.022Z,24.1
2016-04-18T06:55:09.040Z,24.1
2016-04-18T06:56:06.809Z,24.1
2016-04-18T06:57:04.623Z,24.1
2016-04-18T06:58:06.173Z,24.2
2016-04-18T06:59:03.941Z,24.2
2016-04-18T07:00:01.741Z,24.2
2016-04-18T07:00:59.508Z,24.3
2016-04-18T07:01:57.277Z,24.3
2016-04-18T07:02:55.061Z,24.4
2016-04-18T07:03:52.889Z,24.4
2016-04-18T07:04:53.923Z,24.5
2016-04-18T07:05:51.676Z,24.5
2016-04-18T07:06:53.257Z,24.5
2016-04-18T07:07:54.841Z,24.6
2016-04-18T07:08:56.531Z,24.6
2016-04-18T07:09:58.002Z,24.7
2016-04-18T07:10:59.427Z,24.8
2016-04-18T07:12:00.632Z,24.8
2016-04-18T07:13:01.963Z,24.8
2016-04-18T07:14:03.340Z,24.9
2016-04-18T07:15:04.360Z,24.9
2016-04-18T07:16:05.799Z,24.9
2016-04-18T07:17:06.990Z,25
2016-04-18T07:18:08.320Z,25.1
2016-04-18T07:19:09.651Z,25.2
2016-04-18T07:20:10.966Z,25.2
2016-04-18T07:21:12.289Z,25.3
2016-04-18T07:22:13.619Z,25.3
2016-04-18T07:23:14.935Z,25.4
2016-04-18T07:24:16.188Z,25.5
2016-04-18T07:25:17.191Z,25.6
2016-04-18T07:26:18.130Z,25.7
2016-04-18T07:27:18.946Z,25.7
2016-04-18T07:28:19.261Z,25.7
2016-04-18T07:29:19.060Z,25.7
2016-04-18T07:30:18.469Z,25.8
2016-04-18T07:31:17.144Z,25.8
2016-04-18T07:32:15.427Z,25.8
2016-04-18T07:33:13.227Z,25.8
2016-04-18T07:34:14.840Z,25.8
2016-04-18T07:35:15.857Z,25.8
2016-04-18T07:36:16.673Z,25.8
2016-04-18T07:37:17.237Z,25.8
2016-04-18T07:38:18.037Z,25.8
2016-04-18T07:39:18.603Z,25.7
2016-04-18T07:40:18.901Z,25.7
2016-04-18T07:41:19.217Z,25.7
2016-04-18T07:42:19.532Z,25.7
2016-04-18T07:43:19.816Z,25.7
2016-04-18T07:44:19.694Z,25.7
2016-04-18T07:45:20.697Z,25.7
2016-04-18T07:46:19.996Z,25.6
2016-04-18T07:47:19.280Z,25.6
2016-04-18T07:48:18.595Z,25.5
2016-04-18T07:49:17.661Z,25.4
2016-04-18T07:50:16.679Z,25.3
2016-04-18T07:51:15.854Z,25.3
2016-04-18T07:52:14.513Z,25.3
2016-04-18T07:53:13.547Z,25.3
2016-04-18T07:54:12.658Z,25.2
2016-04-18T07:55:13.646Z,25.2
2016-04-18T07:56:12.944Z,25.1
2016-04-18T07:57:12.244Z,25.1
2016-04-18T07:58:11.638Z,25.1
2016-04-18T07:59:10.828Z,25.2
2016-04-18T08:00:10.112Z,25.2
2016-04-18T08:01:09.412Z,25.2
2016-04-18T08:02:08.710Z,25.2
2016-04-18T08:03:08.011Z,25.2
2016-04-18T08:04:07.232Z,25.1
2016-04-18T08:05:08.126Z,25.1
2016-04-18T08:06:06.909Z,25
2016-04-18T08:07:05.693Z,25
2016-04-18T08:08:04.227Z,25
2016-04-18T08:09:02.512Z,25
2016-04-18T08:10:00.920Z,25
2016-04-18T08:10:59.189Z,24.9
2016-04-18T08:11:57.362Z,24.9
2016-04-18T08:12:55.378Z,24.9
2016-04-18T08:13:53.209Z,24.9
2016-04-18T08:14:54.212Z,24.9
2016-04-18T08:15:51.995Z,24.9
2016-04-18T08:16:49.764Z,24.8
2016-04-18T08:17:47.533Z,24.7
2016-04-18T08:18:45.317Z,24.7
2016-04-18T08:19:43.194Z,24.7
2016-04-18T08:20:44.667Z,24.7
2016-04-18T08:21:46.372Z,24.7
2016-04-18T08:22:44.015Z,24.7
2016-04-18T08:23:41.862Z,24.8
2016-04-18T08:24:43.006Z,24.8
2016-04-18T08:25:44.555Z,24.9
2016-04-18T08:26:46.150Z,24.9
2016-04-18T08:27:47.575Z,25
2016-04-18T08:28:49.155Z,25.1
2016-04-18T08:29:50.721Z,25.1
2016-04-18T08:30:52.302Z,25.1
2016-04-18T08:31:53.883Z,25.2
2016-04-18T08:32:55.214Z,25.2
2016-04-18T08:33:56.844Z,25.3
2016-04-18T08:34:57.831Z,25.3
2016-04-18T08:35:59.147Z,25.3
2016-04-18T08:37:00.618Z,25.3
2016-04-18T08:38:01.808Z,25.3
2016-04-18T08:39:03.233Z,25.3
2016-04-18T08:40:04.438Z,25.3
2016-04-18T08:41:05.754Z,25.3
2016-04-18T08:42:07.068Z,25.3
2016-04-18T08:43:08.400Z,25.3
2016-04-18T08:44:09.778Z,25.3
2016-04-18T08:45:10.796Z,25.2
2016-04-18T08:46:12.111Z,25.2
2016-04-18T08:47:13.442Z,25.2
2016-04-18T08:48:14.756Z,25.2
2016-04-18T08:49:16.072Z,25.2
2016-04-18T08:50:17.653Z,25.2
2016-04-18T08:51:15.422Z,25.2
2016-04-18T08:52:13.206Z,25.2
2016-04-18T08:53:11.223Z,25.2
2016-04-18T08:54:09.305Z,25.2
2016-04-18T08:55:10.323Z,25.1
2016-04-18T08:56:08.716Z,25.1
2016-04-18T08:57:06.905Z,25.2
2016-04-18T08:58:05.158Z,25.1
2016-04-18T08:59:03.443Z,25.2
2016-04-18T09:00:01.835Z,25.1
2016-04-18T09:01:00.120Z,25.1
2016-04-18T09:01:58.294Z,25.1
2016-04-18T09:02:56.560Z,25.1
2016-04-18T09:03:54.891Z,25
2016-04-18T09:04:55.909Z,25
2016-04-18T09:05:53.960Z,25
2016-04-18T09:06:51.712Z,25
2016-04-18T09:07:49.605Z,24.9
2016-04-18T09:08:50.796Z,24.9
2016-04-18T09:09:52.127Z,24.8
2016-04-18T09:10:53.440Z,24.7
2016-04-18T09:11:54.771Z,24.7
2016-04-18T09:12:56.088Z,24.6
2016-04-18T09:13:57.573Z,24.5
2016-04-18T09:14:58.501Z,24.5
2016-04-18T09:15:59.817Z,24.5
2016-04-18T09:17:01.131Z,24.5
2016-04-18T09:18:02.587Z,24.4
2016-04-18T09:19:03.778Z,24.5
2016-04-18T09:20:05.093Z,24.4
2016-04-18T09:21:06.448Z,24.4
2016-04-18T09:22:07.806Z,24.4
2016-04-18T09:23:09.179Z,24.4
2016-04-18T09:24:10.630Z,24.3
2016-04-18T09:25:11.673Z,24.3
2016-04-18T09:26:13.109Z,24.3
2016-04-18T09:27:14.455Z,24.2
2016-04-18T09:28:15.677Z,24.3
2016-04-18T09:29:13.459Z,24.2
2016-04-18T09:30:11.385Z,24.3
2016-04-18T09:31:09.162Z,24.3
2016-04-18T09:32:07.077Z,24.3
2016-04-18T09:33:05.396Z,24.3
2016-04-18T09:34:03.717Z,24.3
2016-04-18T09:35:04.757Z,24.3
2016-04-18T09:36:03.028Z,24.3
2016-04-18T09:37:01.423Z,24.4
2016-04-18T09:37:59.617Z,24.3
2016-04-18T09:38:57.867Z,24.3
2016-04-18T09:39:56.416Z,24.3
2016-04-18T09:40:54.953Z,24.3
2016-04-18T09:41:53.738Z,24.3
2016-04-18T09:42:52.539Z,24.3
2016-04-18T09:43:51.386Z,24.3
2016-04-18T09:44:52.389Z,24.2
2016-04-18T09:45:51.299Z,24.2
2016-04-18T09:46:49.974Z,24.2
2016-04-18T09:47:48.758Z,24.1
2016-04-18T09:48:47.808Z,24.1
2016-04-18T09:49:47.435Z,24.1
2016-04-18T09:50:46.249Z,24.1
2016-04-18T09:51:45.424Z,24.1
2016-04-18T09:52:44.724Z,24.1
2016-04-18T09:53:44.070Z,24.1
2016-04-18T09:54:45.213Z,24.1
2016-04-18T09:55:44.388Z,24.1
2016-04-18T09:56:43.673Z,24.1
2016-04-18T09:57:42.972Z,24.1
2016-04-18T09:58:42.271Z,24.1
2016-04-18T09:59:41.587Z,24.1
2016-04-18T10:00:40.855Z,24.1
2016-04-18T10:01:40.404Z,24.1
2016-04-18T10:02:40.329Z,24.1
2016-04-18T10:03:40.066Z,24.1
2016-04-18T10:04:41.084Z,24.1
2016-04-18T10:05:40.915Z,24
2016-04-18T10:06:40.700Z,24
2016-04-18T10:07:40.515Z,24
2016-04-18T10:08:40.314Z,24
2016-04-18T10:09:40.114Z,24
2016-04-18T10:10:39.961Z,24
2016-04-18T10:11:39.838Z,23.9
2016-04-18T10:12:39.515Z,23.9
2016-04-18T10:13:39.378Z,23.9
2016-04-18T10:14:40.395Z,23.9
2016-04-18T10:15:40.320Z,23.9
2016-04-18T10:16:40.261Z,23.9
2016-04-18T10:17:40.326Z,23.8
2016-04-18T10:18:40.375Z,23.8
2016-04-18T10:19:40.424Z,23.8
2016-04-18T10:20:40.474Z,23.8
2016-04-18T10:21:40.789Z,23.7
2016-04-18T10:22:41.105Z,23.7
2016-04-18T10:23:41.466Z,23.7
2016-04-18T10:24:42.485Z,23.7
2016-04-18T10:25:42.785Z,23.7
2016-04-18T10:26:43.115Z,23.7
2016-04-18T10:27:43.430Z,23.7
2016-04-18T10:28:43.840Z,23.7
2016-04-18T10:29:44.296Z,23.7
2016-04-18T10:30:44.454Z,23.7
2016-04-18T10:31:44.660Z,23.7
2016-04-18T10:32:45.225Z,23.6
2016-04-18T10:33:45.837Z,23.6
2016-04-18T10:34:46.856Z,23.6
2016-04-18T10:35:47.421Z,23.6
2016-04-18T10:36:47.987Z,23.6
2016-04-18T10:37:48.676Z,23.6
2016-04-18T10:38:49.367Z,23.6
2016-04-18T10:39:50.181Z,23.6
2016-04-18T10:40:51.029Z,23.5
2016-04-18T10:41:51.811Z,23.5
2016-04-18T10:42:52.783Z,23.5
2016-04-18T10:43:53.505Z,23.5
2016-04-18T10:44:54.523Z,23.5
2016-04-18T10:45:55.432Z,23.5
2016-04-18T10:46:56.186Z,23.5
2016-04-18T10:47:56.969Z,23.5
2016-04-18T10:48:57.800Z,23.4
2016-04-18T10:49:58.647Z,23.4
2016-04-18T10:50:59.431Z,23.4
2016-04-18T10:52:00.494Z,23.3
2016-04-18T10:53:01.576Z,23.4
2016-04-18T10:54:02.707Z,23.3
2016-04-18T10:55:03.709Z,23.3
2016-04-18T10:56:04.790Z,23.3
2016-04-18T10:57:05.855Z,23.3
2016-04-18T10:58:06.935Z,23.3
2016-04-18T10:59:08.252Z,23.3
2016-04-18T11:00:09.707Z,23.3
2016-04-18T11:01:10.647Z,23.3
2016-04-18T11:02:11.978Z,23.3
2016-04-18T11:03:13.309Z,23.2
2016-04-18T11:04:14.686Z,23.3
2016-04-18T11:05:15.704Z,23.2
2016-04-18T11:06:17.035Z,23.2
2016-04-18T11:07:18.366Z,23.2
2016-04-18T11:08:19.697Z,23.2
2016-04-18T11:09:21.012Z,23.2
2016-04-18T11:10:22.468Z,23.2
2016-04-18T11:11:23.658Z,23.2
2016-04-18T11:12:24.989Z,23.2
2016-04-18T11:13:26.429Z,23.2
2016-04-18T11:14:27.697Z,23.2
2016-04-18T11:15:28.732Z,23.2
2016-04-18T11:16:30.031Z,23.2
2016-04-18T11:17:31.487Z,23.2
2016-04-18T11:18:32.692Z,23.2
2016-04-18T11:19:34.274Z,23.2
2016-04-18T11:20:35.605Z,23.2
2016-04-18T11:21:37.185Z,23.2
2016-04-18T11:22:38.751Z,23.2
2016-04-18T11:23:40.331Z,23.2
2016-04-18T11:24:41.975Z,23.2
2016-04-18T11:25:43.102Z,23.2
2016-04-18T11:26:44.574Z,23.2
2016-04-18T11:27:46.154Z,23.2
2016-04-18T11:28:47.720Z,23.2
2016-04-18T11:29:49.301Z,23.2
2016-04-18T11:30:50.881Z,23.2
2016-04-18T11:31:52.462Z,23.2
2016-04-18T11:32:54.168Z,23.2
2016-04-18T11:33:55.718Z,23.2
2016-04-18T11:34:53.440Z,23.2
2016-04-18T11:35:54.457Z,23.2
2016-04-18T11:36:52.240Z,23.2
2016-04-18T11:37:50.134Z,23.2
2016-04-18T11:38:47.778Z,23.2
2016-04-18T11:39:45.687Z,23.2
2016-04-18T11:40:43.377Z,23.2
2016-04-18T11:41:41.114Z,23.2
2016-04-18T11:42:38.898Z,23.2
2016-04-18T11:43:36.681Z,23.2
2016-04-18T11:44:34.512Z,23.2
2016-04-18T11:45:35.531Z,23.2
2016-04-18T11:46:33.300Z,23.2
2016-04-18T11:47:31.083Z,23.2
2016-04-18T11:48:28.867Z,23.2
2016-04-18T11:49:26.636Z,23.2
2016-04-18T11:50:24.435Z,23.2
2016-04-18T11:51:22.188Z,23.1
2016-04-18T11:52:19.972Z,23.2
2016-04-18T11:53:17.866Z,23.1
2016-04-18T11:54:15.572Z,23.1
2016-04-18T11:55:16.621Z,23.2
2016-04-18T11:56:14.374Z,23.1
2016-04-18T11:57:12.282Z,23.1
2016-04-18T11:58:09.925Z,23.1
2016-04-18T11:59:07.709Z,23.1
2016-04-18T12:00:05.477Z,23
2016-04-18T12:01:03.509Z,23
2016-04-18T12:02:01.543Z,23
2016-04-18T12:02:59.577Z,23
2016-04-18T12:03:57.673Z,23
2016-04-18T12:04:58.677Z,23
2016-04-18T12:05:56.709Z,23
2016-04-18T12:06:54.743Z,23
2016-04-18T12:07:52.778Z,23
2016-04-18T12:08:51.062Z,23
2016-04-18T12:09:49.252Z,22.9
2016-04-18T12:10:47.395Z,22.9
2016-04-18T12:11:45.679Z,22.9
2016-04-18T12:12:43.963Z,22.9
2016-04-18T12:13:42.294Z,22.9
2016-04-18T12:14:43.312Z,22.9
2016-04-18T12:15:41.595Z,22.9
2016-04-18T12:16:39.880Z,22.9
2016-04-18T12:17:38.164Z,22.9
2016-04-18T12:18:36.572Z,22.9
2016-04-18T12:19:34.731Z,22.9
2016-04-18T12:20:33.016Z,22.9
2016-04-18T12:21:31.300Z,22.9
2016-04-18T12:22:29.708Z,22.9
2016-04-18T12:23:28.056Z,22.9
2016-04-18T12:24:29.073Z,22.9
2016-04-18T12:25:27.232Z,22.9
2016-04-18T12:26:25.517Z,22.9
2016-04-18T12:27:23.800Z,22.9
2016-04-18T12:28:22.085Z,22.9
2016-04-18T12:29:20.369Z,22.9
2016-04-18T12:30:18.652Z,22.9
2016-04-18T12:31:16.952Z,22.9
2016-04-18T12:32:15.236Z,22.9
2016-04-18T12:33:13.566Z,22.9
2016-04-18T12:34:14.585Z,22.9
2016-04-18T12:35:12.869Z,22.9
2016-04-18T12:36:11.152Z,22.9
2016-04-18T12:37:09.437Z,22.9
2016-04-18T12:38:07.721Z,22.9
2016-04-18T12:39:06.004Z,22.9
2016-04-18T12:40:04.551Z,22.9
2016-04-18T12:41:03.085Z,22.8
2016-04-18T12:42:01.620Z,22.9
2016-04-18T12:43:00.215Z,22.8
2016-04-18T12:44:01.359Z,22.9
2016-04-18T12:44:59.768Z,22.8
2016-04-18T12:45:58.317Z,22.9
2016-04-18T12:46:56.851Z,22.9
2016-04-18T12:47:55.511Z,22.9
2016-04-18T12:48:53.935Z,22.8
2016-04-18T12:49:52.469Z,22.8
2016-04-18T12:50:51.003Z,22.8
2016-04-18T12:51:49.553Z,22.8
2016-04-18T12:52:48.258Z,22.8
2016-04-18T12:53:49.152Z,22.8
2016-04-18T12:54:47.950Z,22.8
2016-04-18T12:55:46.750Z,22.8
2016-04-18T12:56:45.535Z,22.8
2016-04-18T12:57:44.333Z,22.8
2016-04-18T12:58:43.119Z,22.7
2016-04-18T12:59:42.027Z,22.8
2016-04-18T13:00:40.701Z,22.8
2016-04-18T13:01:39.502Z,22.7
2016-04-18T13:02:38.347Z,22.7
2016-04-18T13:03:39.491Z,22.7
2016-04-18T13:04:38.150Z,22.7
2016-04-18T13:05:36.949Z,22.7
2016-04-18T13:06:35.732Z,22.7
2016-04-18T13:07:34.533Z,22.7
2016-04-18T13:08:33.332Z,22.7
2016-04-18T13:09:32.116Z,22.7
2016-04-18T13:10:30.916Z,22.7
2016-04-18T13:12:28.546Z,22.7
2016-04-18T13:13:29.565Z,22.7
2016-04-18T13:14:28.364Z,22.7
2016-04-18T13:15:27.164Z,22.6
2016-04-18T13:16:25.948Z,22.7
2016-04-18T13:17:24.731Z,22.7